sensor_id;sensor_type;location;lat;lon;timestamp;P1;durP1;ratioP1;P2;durP2;ratioP2
71238;SDS011;61342;51.442;7.370;2022-07-10T00:32:16;4.50;;;1.60;;
71238;SDS011;61342;51.442;7.370;2022-07-10T00:34:58;4.20;;;1.70;;
71238;SDS011;61342;51.442;7.370;2022-07-10T00:36:44;5.67;;;1.70;;
71238;SDS011;61342;51.442;7.370;2022-07-10T00:38:48;3.43;;;1.50;;
71238;SDS011;61342;51.442;7.370;2022-07-10T00:48:43;3.27;;;1.40;;
71238;SDS011;61342;51.442;7.370;2022-07-10T00:57:48;4.33;;;1.40;;
71238;SDS011;61342;51.442;7.370;2022-07-10T01:01:51;6.67;;;1.63;;
71238;SDS011;61342;51.442;7.370;2022-07-10T01:09:36;4.77;;;1.67;;
71238;SDS011;61342;51.442;7.370;2022-07-10T01:11:14;3.73;;;1.43;;
71238;SDS011;61342;51.442;7.370;2022-07-10T01:16:44;6.37;;;1.50;;
71238;SDS011;61342;51.442;7.370;2022-07-10T01:18:30;7.17;;;1.40;;
71238;SDS011;61342;51.442;7.370;2022-07-10T01:20:19;4.23;;;1.33;;
71238;SDS011;61342;51.442;7.370;2022-07-10T01:21:55;6.37;;;1.50;;
71238;SDS011;61342;51.442;7.370;2022-07-10T01:23:21;6.10;;;1.50;;
71238;SDS011;61342;51.442;7.370;2022-07-10T01:26:48;5.47;;;1.40;;
71238;SDS011;61342;51.442;7.370;2022-07-10T01:31:05;5.07;;;1.97;;
71238;SDS011;61342;51.442;7.370;2022-07-10T01:34:04;8.27;;;1.60;;
71238;SDS011;61342;51.442;7.370;2022-07-10T01:37:47;4.87;;;1.60;;
71238;SDS011;61342;51.442;7.370;2022-07-10T01:39:13;4.07;;;1.50;;
71238;SDS011;61342;51.442;7.370;2022-07-10T01:42:31;5.03;;;1.30;;
71238;SDS011;61342;51.442;7.370;2022-07-10T01:56:39;4.70;;;1.27;;
71238;SDS011;61342;51.442;7.370;2022-07-10T02:00:32;6.00;;;1.30;;
71238;SDS011;61342;51.442;7.370;2022-07-10T02:05:13;4.40;;;1.47;;
71238;SDS011;61342;51.442;7.370;2022-07-10T02:06:47;4.60;;;1.20;;
71238;SDS011;61342;51.442;7.370;2022-07-10T02:14:20;8.43;;;1.67;;
71238;SDS011;61342;51.442;7.370;2022-07-10T02:16:30;9.10;;;1.50;;
71238;SDS011;61342;51.442;7.370;2022-07-10T02:17:58;7.30;;;1.30;;
71238;SDS011;61342;51.442;7.370;2022-07-10T02:19:35;6.37;;;1.70;;
71238;SDS011;61342;51.442;7.370;2022-07-10T02:21:33;3.67;;;1.30;;
71238;SDS011;61342;51.442;7.370;2022-07-10T02:24:45;4.27;;;1.50;;
71238;SDS011;61342;51.442;7.370;2022-07-10T02:26:35;7.93;;;1.73;;
71238;SDS011;61342;51.442;7.370;2022-07-10T02:28:22;4.67;;;1.27;;
71238;SDS011;61342;51.442;7.370;2022-07-10T02:32:39;8.00;;;1.40;;
71238;SDS011;61342;51.442;7.370;2022-07-10T02:35:09;6.23;;;1.40;;
71238;SDS011;61342;51.442;7.370;2022-07-10T02:36:39;3.47;;;1.60;;
71238;SDS011;61342;51.442;7.370;2022-07-10T02:42:31;3.90;;;1.33;;
71238;SDS011;61342;51.442;7.370;2022-07-10T02:50:22;3.90;;;1.47;;
71238;SDS011;61342;51.442;7.370;2022-07-10T02:56:22;5.20;;;1.43;;
71238;SDS011;61342;51.442;7.370;2022-07-10T02:57:50;7.97;;;1.90;;
71238;SDS011;61342;51.442;7.370;2022-07-10T02:59:30;4.87;;;1.57;;
71238;SDS011;61342;51.442;7.370;2022-07-10T03:06:10;4.70;;;1.57;;
71238;SDS011;61342;51.442;7.370;2022-07-10T03:08:27;4.30;;;1.57;;
71238;SDS011;61342;51.442;7.370;2022-07-10T03:09:44;7.07;;;1.90;;
71238;SDS011;61342;51.442;7.370;2022-07-10T03:20:55;6.60;;;1.50;;
71238;SDS011;61342;51.442;7.370;2022-07-10T03:24:16;11.20;;;1.97;;
71238;SDS011;61342;51.442;7.370;2022-07-10T03:25:36;5.37;;;1.60;;
71238;SDS011;61342;51.442;7.370;2022-07-10T03:36:12;7.37;;;1.73;;
71238;SDS011;61342;51.442;7.370;2022-07-10T03:40:10;3.90;;;1.60;;
71238;SDS011;61342;51.442;7.370;2022-07-10T03:47:25;7.80;;;1.53;;
71238;SDS011;61342;51.442;7.370;2022-07-10T03:53:15;5.53;;;1.60;;
71238;SDS011;61342;51.442;7.370;2022-07-10T03:54:49;7.83;;;1.70;;
71238;SDS011;61342;51.442;7.370;2022-07-10T04:01:24;9.27;;;2.07;;
71238;SDS011;61342;51.442;7.370;2022-07-10T04:02:47;3.83;;;1.60;;
71238;SDS011;61342;51.442;7.370;2022-07-10T04:04:29;7.37;;;1.50;;
71238;SDS011;61342;51.442;7.370;2022-07-10T04:06:13;7.73;;;2.23;;
71238;SDS011;61342;51.442;7.370;2022-07-10T04:20:09;10.73;;;1.77;;
71238;SDS011;61342;51.442;7.370;2022-07-10T04:34:48;7.97;;;1.60;;
71238;SDS011;61342;51.442;7.370;2022-07-10T04:46:18;4.13;;;1.50;;
71238;SDS011;61342;51.442;7.370;2022-07-10T04:47:43;8.50;;;2.00;;
71238;SDS011;61342;51.442;7.370;2022-07-10T04:50:48;5.70;;;2.10;;
71238;SDS011;61342;51.442;7.370;2022-07-10T04:57:05;10.77;;;2.33;;
71238;SDS011;61342;51.442;7.370;2022-07-10T05:00:56;8.90;;;1.83;;
71238;SDS011;61342;51.442;7.370;2022-07-10T05:02:13;6.73;;;1.80;;
71238;SDS011;61342;51.442;7.370;2022-07-10T05:03:46;6.73;;;1.53;;
71238;SDS011;61342;51.442;7.370;2022-07-10T05:09:17;9.13;;;1.90;;
71238;SDS011;61342;51.442;7.370;2022-07-10T05:10:46;8.67;;;1.93;;
71238;SDS011;61342;51.442;7.370;2022-07-10T05:13:54;8.00;;;1.63;;
71238;SDS011;61342;51.442;7.370;2022-07-10T05:14:57;7.90;;;1.83;;
71238;SDS011;61342;51.442;7.370;2022-07-10T05:16:20;7.97;;;1.73;;
71238;SDS011;61342;51.442;7.370;2022-07-10T05:17:25;7.70;;;1.77;;
71238;SDS011;61342;51.442;7.370;2022-07-10T05:20:33;5.53;;;1.57;;
71238;SDS011;61342;51.442;7.370;2022-07-10T05:22:05;4.57;;;1.60;;
71238;SDS011;61342;51.442;7.370;2022-07-10T05:23:28;6.60;;;1.80;;
71238;SDS011;61342;51.442;7.370;2022-07-10T05:24:44;5.90;;;1.57;;
71238;SDS011;61342;51.442;7.370;2022-07-10T05:26:05;4.17;;;1.50;;
71238;SDS011;61342;51.442;7.370;2022-07-10T05:27:06;6.30;;;1.90;;
71238;SDS011;61342;51.442;7.370;2022-07-10T05:28:06;10.40;;;1.80;;
71238;SDS011;61342;51.442;7.370;2022-07-10T05:29:07;6.40;;;1.70;;
71238;SDS011;61342;51.442;7.370;2022-07-10T05:30:07;6.70;;;1.70;;
71238;SDS011;61342;51.442;7.370;2022-07-10T05:31:08;7.40;;;2.00;;
71238;SDS011;61342;51.442;7.370;2022-07-10T05:32:08;10.60;;;1.90;;
71238;SDS011;61342;51.442;7.370;2022-07-10T05:33:09;9.03;;;1.70;;
71238;SDS011;61342;51.442;7.370;2022-07-10T05:34:10;7.17;;;1.50;;
71238;SDS011;61342;51.442;7.370;2022-07-10T05:35:11;4.60;;;1.83;;
71238;SDS011;61342;51.442;7.370;2022-07-10T05:36:12;8.53;;;1.90;;
71238;SDS011;61342;51.442;7.370;2022-07-10T05:37:12;8.37;;;2.00;;
71238;SDS011;61342;51.442;7.370;2022-07-10T05:38:12;4.20;;;1.90;;
71238;SDS011;61342;51.442;7.370;2022-07-10T05:39:13;7.40;;;1.80;;
71238;SDS011;61342;51.442;7.370;2022-07-10T05:40:13;7.97;;;2.20;;
71238;SDS011;61342;51.442;7.370;2022-07-10T05:41:13;4.10;;;1.53;;
71238;SDS011;61342;51.442;7.370;2022-07-10T05:42:14;6.97;;;1.90;;
71238;SDS011;61342;51.442;7.370;2022-07-10T05:43:14;5.27;;;1.70;;
71238;SDS011;61342;51.442;7.370;2022-07-10T05:44:15;7.53;;;1.80;;
71238;SDS011;61342;51.442;7.370;2022-07-10T05:45:15;11.33;;;2.10;;
71238;SDS011;61342;51.442;7.370;2022-07-10T05:46:15;7.27;;;1.53;;
71238;SDS011;61342;51.442;7.370;2022-07-10T05:47:16;5.40;;;1.60;;
71238;SDS011;61342;51.442;7.370;2022-07-10T05:48:16;8.00;;;1.80;;
71238;SDS011;61342;51.442;7.370;2022-07-10T05:49:17;5.93;;;1.60;;
71238;SDS011;61342;51.442;7.370;2022-07-10T05:50:17;8.50;;;2.07;;
71238;SDS011;61342;51.442;7.370;2022-07-10T05:51:18;5.97;;;1.40;;
71238;SDS011;61342;51.442;7.370;2022-07-10T05:52:18;7.90;;;1.47;;
71238;SDS011;61342;51.442;7.370;2022-07-10T05:53:18;5.17;;;1.50;;
71238;SDS011;61342;51.442;7.370;2022-07-10T05:54:19;8.53;;;1.87;;
71238;SDS011;61342;51.442;7.370;2022-07-10T05:55:19;8.10;;;2.00;;
71238;SDS011;61342;51.442;7.370;2022-07-10T05:56:20;8.73;;;1.67;;
71238;SDS011;61342;51.442;7.370;2022-07-10T05:57:20;5.27;;;2.33;;
71238;SDS011;61342;51.442;7.370;2022-07-10T05:58:20;7.83;;;2.07;;
71238;SDS011;61342;51.442;7.370;2022-07-10T05:59:21;9.20;;;1.83;;
71238;SDS011;61342;51.442;7.370;2022-07-10T06:00:21;6.43;;;2.00;;
71238;SDS011;61342;51.442;7.370;2022-07-10T06:01:25;5.57;;;1.90;;
71238;SDS011;61342;51.442;7.370;2022-07-10T06:02:28;7.70;;;1.80;;
71238;SDS011;61342;51.442;7.370;2022-07-10T06:03:28;7.30;;;1.80;;
71238;SDS011;61342;51.442;7.370;2022-07-10T06:04:29;8.43;;;1.77;;
71238;SDS011;61342;51.442;7.370;2022-07-10T06:05:29;4.37;;;1.80;;
71238;SDS011;61342;51.442;7.370;2022-07-10T06:06:30;6.30;;;1.53;;
71238;SDS011;61342;51.442;7.370;2022-07-10T06:07:30;10.00;;;2.23;;
71238;SDS011;61342;51.442;7.370;2022-07-10T06:08:30;4.90;;;1.73;;
71238;SDS011;61342;51.442;7.370;2022-07-10T06:09:30;8.10;;;1.67;;
71238;SDS011;61342;51.442;7.370;2022-07-10T06:10:31;6.00;;;1.80;;
71238;SDS011;61342;51.442;7.370;2022-07-10T06:11:31;7.97;;;2.03;;
71238;SDS011;61342;51.442;7.370;2022-07-10T06:12:32;4.67;;;1.87;;
71238;SDS011;61342;51.442;7.370;2022-07-10T06:13:32;10.13;;;1.90;;
71238;SDS011;61342;51.442;7.370;2022-07-10T06:14:32;8.67;;;1.60;;
71238;SDS011;61342;51.442;7.370;2022-07-10T06:15:33;3.17;;;1.30;;
71238;SDS011;61342;51.442;7.370;2022-07-10T06:16:33;4.27;;;1.50;;
71238;SDS011;61342;51.442;7.370;2022-07-10T06:17:34;5.10;;;1.43;;
71238;SDS011;61342;51.442;7.370;2022-07-10T06:18:34;7.80;;;1.90;;
71238;SDS011;61342;51.442;7.370;2022-07-10T06:19:34;6.47;;;1.63;;
71238;SDS011;61342;51.442;7.370;2022-07-10T06:20:35;9.33;;;2.17;;
71238;SDS011;61342;51.442;7.370;2022-07-10T06:21:35;7.37;;;1.77;;
71238;SDS011;61342;51.442;7.370;2022-07-10T06:22:35;6.93;;;2.57;;
71238;SDS011;61342;51.442;7.370;2022-07-10T06:23:36;9.13;;;1.90;;
71238;SDS011;61342;51.442;7.370;2022-07-10T06:24:36;5.33;;;1.93;;
71238;SDS011;61342;51.442;7.370;2022-07-10T06:25:37;8.23;;;2.00;;
71238;SDS011;61342;51.442;7.370;2022-07-10T06:26:37;8.30;;;2.33;;
71238;SDS011;61342;51.442;7.370;2022-07-10T06:27:40;4.47;;;1.70;;
71238;SDS011;61342;51.442;7.370;2022-07-10T06:28:41;10.40;;;1.87;;
71238;SDS011;61342;51.442;7.370;2022-07-10T06:29:41;6.17;;;1.77;;
71238;SDS011;61342;51.442;7.370;2022-07-10T06:30:42;6.63;;;1.80;;
71238;SDS011;61342;51.442;7.370;2022-07-10T06:31:45;8.57;;;2.07;;
71238;SDS011;61342;51.442;7.370;2022-07-10T06:32:45;6.77;;;1.90;;
71238;SDS011;61342;51.442;7.370;2022-07-10T06:33:46;4.67;;;1.53;;
71238;SDS011;61342;51.442;7.370;2022-07-10T06:34:46;12.67;;;2.07;;
71238;SDS011;61342;51.442;7.370;2022-07-10T06:35:47;9.87;;;1.80;;
71238;SDS011;61342;51.442;7.370;2022-07-10T06:36:50;6.73;;;1.77;;
71238;SDS011;61342;51.442;7.370;2022-07-10T06:37:50;5.50;;;1.60;;
71238;SDS011;61342;51.442;7.370;2022-07-10T06:38:53;6.30;;;1.50;;
71238;SDS011;61342;51.442;7.370;2022-07-10T06:39:53;5.07;;;1.40;;
71238;SDS011;61342;51.442;7.370;2022-07-10T06:40:54;4.37;;;1.60;;
71238;SDS011;61342;51.442;7.370;2022-07-10T06:41:54;7.60;;;1.60;;
71238;SDS011;61342;51.442;7.370;2022-07-10T06:42:55;5.10;;;1.60;;
71238;SDS011;61342;51.442;7.370;2022-07-10T06:43:55;7.47;;;1.73;;
71238;SDS011;61342;51.442;7.370;2022-07-10T06:44:56;4.97;;;1.33;;
71238;SDS011;61342;51.442;7.370;2022-07-10T06:45:56;5.83;;;1.30;;
71238;SDS011;61342;51.442;7.370;2022-07-10T06:46:57;5.63;;;1.50;;
71238;SDS011;61342;51.442;7.370;2022-07-10T06:48:17;7.03;;;1.40;;
71238;SDS011;61342;51.442;7.370;2022-07-10T06:49:17;5.73;;;2.00;;
71238;SDS011;61342;51.442;7.370;2022-07-10T06:50:17;4.30;;;1.37;;
71238;SDS011;61342;51.442;7.370;2022-07-10T06:51:18;4.93;;;1.50;;
71238;SDS011;61342;51.442;7.370;2022-07-10T06:52:19;4.40;;;1.57;;
71238;SDS011;61342;51.442;7.370;2022-07-10T06:53:19;6.80;;;1.83;;
71238;SDS011;61342;51.442;7.370;2022-07-10T06:54:24;6.90;;;1.40;;
71238;SDS011;61342;51.442;7.370;2022-07-10T06:55:27;6.90;;;1.47;;
71238;SDS011;61342;51.442;7.370;2022-07-10T06:56:27;5.97;;;2.07;;
71238;SDS011;61342;51.442;7.370;2022-07-10T06:57:28;7.60;;;1.57;;
71238;SDS011;61342;51.442;7.370;2022-07-10T06:58:28;4.33;;;1.27;;
71238;SDS011;61342;51.442;7.370;2022-07-10T06:59:28;7.77;;;1.63;;
71238;SDS011;61342;51.442;7.370;2022-07-10T07:00:29;6.87;;;1.70;;
71238;SDS011;61342;51.442;7.370;2022-07-10T07:01:29;9.63;;;1.53;;
71238;SDS011;61342;51.442;7.370;2022-07-10T07:02:30;8.90;;;1.80;;
71238;SDS011;61342;51.442;7.370;2022-07-10T07:03:30;10.17;;;1.63;;
71238;SDS011;61342;51.442;7.370;2022-07-10T07:04:30;6.53;;;2.00;;
71238;SDS011;61342;51.442;7.370;2022-07-10T07:05:31;7.97;;;1.50;;
71238;SDS011;61342;51.442;7.370;2022-07-10T07:06:32;5.37;;;1.57;;
71238;SDS011;61342;51.442;7.370;2022-07-10T07:07:32;7.20;;;1.60;;
71238;SDS011;61342;51.442;7.370;2022-07-10T07:08:32;8.90;;;2.30;;
71238;SDS011;61342;51.442;7.370;2022-07-10T07:09:36;4.87;;;1.70;;
71238;SDS011;61342;51.442;7.370;2022-07-10T07:10:36;5.80;;;1.73;;
71238;SDS011;61342;51.442;7.370;2022-07-10T07:11:37;5.30;;;1.37;;
71238;SDS011;61342;51.442;7.370;2022-07-10T07:12:38;5.37;;;1.33;;
71238;SDS011;61342;51.442;7.370;2022-07-10T07:13:38;7.63;;;1.40;;
71238;SDS011;61342;51.442;7.370;2022-07-10T07:14:39;5.50;;;1.43;;
71238;SDS011;61342;51.442;7.370;2022-07-10T07:15:39;6.00;;;1.53;;
71238;SDS011;61342;51.442;7.370;2022-07-10T07:16:42;5.57;;;1.60;;
71238;SDS011;61342;51.442;7.370;2022-07-10T07:17:44;5.87;;;1.50;;
71238;SDS011;61342;51.442;7.370;2022-07-10T07:18:57;5.33;;;1.70;;
71238;SDS011;61342;51.442;7.370;2022-07-10T07:19:57;6.23;;;1.97;;
71238;SDS011;61342;51.442;7.370;2022-07-10T07:21:16;5.70;;;1.60;;
71238;SDS011;61342;51.442;7.370;2022-07-10T07:22:35;6.87;;;1.83;;
71238;SDS011;61342;51.442;7.370;2022-07-10T07:23:55;8.17;;;2.03;;
71238;SDS011;61342;51.442;7.370;2022-07-10T07:24:55;7.00;;;1.60;;
71238;SDS011;61342;51.442;7.370;2022-07-10T07:25:56;5.47;;;1.60;;
71238;SDS011;61342;51.442;7.370;2022-07-10T07:26:56;7.63;;;1.67;;
71238;SDS011;61342;51.442;7.370;2022-07-10T07:28:07;7.10;;;1.53;;
71238;SDS011;61342;51.442;7.370;2022-07-10T07:29:08;4.50;;;1.77;;
71238;SDS011;61342;51.442;7.370;2022-07-10T07:30:10;6.93;;;1.73;;
71238;SDS011;61342;51.442;7.370;2022-07-10T07:31:14;7.00;;;1.93;;
71238;SDS011;61342;51.442;7.370;2022-07-10T07:32:17;4.27;;;1.90;;
71238;SDS011;61342;51.442;7.370;2022-07-10T07:33:18;8.87;;;1.97;;
71238;SDS011;61342;51.442;7.370;2022-07-10T07:34:19;6.27;;;2.00;;
71238;SDS011;61342;51.442;7.370;2022-07-10T07:35:20;5.53;;;1.40;;
71238;SDS011;61342;51.442;7.370;2022-07-10T07:36:20;5.67;;;1.53;;
71238;SDS011;61342;51.442;7.370;2022-07-10T07:37:21;5.40;;;1.80;;
71238;SDS011;61342;51.442;7.370;2022-07-10T07:38:21;7.43;;;2.27;;
71238;SDS011;61342;51.442;7.370;2022-07-10T07:39:22;6.53;;;1.80;;
71238;SDS011;61342;51.442;7.370;2022-07-10T07:40:22;8.90;;;2.23;;
71238;SDS011;61342;51.442;7.370;2022-07-10T07:41:23;5.67;;;1.77;;
71238;SDS011;61342;51.442;7.370;2022-07-10T07:42:23;5.37;;;1.50;;
71238;SDS011;61342;51.442;7.370;2022-07-10T07:43:24;6.30;;;1.73;;
71238;SDS011;61342;51.442;7.370;2022-07-10T07:44:24;5.67;;;1.90;;
71238;SDS011;61342;51.442;7.370;2022-07-10T07:45:25;8.27;;;1.60;;
71238;SDS011;61342;51.442;7.370;2022-07-10T07:46:26;8.17;;;1.83;;
71238;SDS011;61342;51.442;7.370;2022-07-10T07:47:26;7.50;;;2.47;;
71238;SDS011;61342;51.442;7.370;2022-07-10T07:48:27;5.00;;;1.60;;
71238;SDS011;61342;51.442;7.370;2022-07-10T07:49:27;6.33;;;1.57;;
71238;SDS011;61342;51.442;7.370;2022-07-10T07:50:32;5.23;;;2.50;;
71238;SDS011;61342;51.442;7.370;2022-07-10T07:51:33;6.00;;;1.73;;
71238;SDS011;61342;51.442;7.370;2022-07-10T07:52:33;8.37;;;1.40;;
71238;SDS011;61342;51.442;7.370;2022-07-10T07:53:35;5.97;;;1.63;;
71238;SDS011;61342;51.442;7.370;2022-07-10T07:54:35;4.53;;;1.63;;
71238;SDS011;61342;51.442;7.370;2022-07-10T07:55:36;6.53;;;1.97;;
71238;SDS011;61342;51.442;7.370;2022-07-10T07:56:36;7.63;;;2.27;;
71238;SDS011;61342;51.442;7.370;2022-07-10T07:57:37;13.00;;;2.27;;
71238;SDS011;61342;51.442;7.370;2022-07-10T07:58:37;8.90;;;1.80;;
71238;SDS011;61342;51.442;7.370;2022-07-10T07:59:38;8.73;;;2.00;;
71238;SDS011;61342;51.442;7.370;2022-07-10T08:00:39;7.93;;;2.37;;
71238;SDS011;61342;51.442;7.370;2022-07-10T08:01:39;5.57;;;1.43;;
71238;SDS011;61342;51.442;7.370;2022-07-10T08:02:40;5.90;;;2.00;;
71238;SDS011;61342;51.442;7.370;2022-07-10T08:03:41;6.23;;;2.07;;
71238;SDS011;61342;51.442;7.370;2022-07-10T08:04:41;10.33;;;2.23;;
71238;SDS011;61342;51.442;7.370;2022-07-10T08:05:42;5.47;;;1.90;;
71238;SDS011;61342;51.442;7.370;2022-07-10T08:06:43;5.83;;;1.60;;
71238;SDS011;61342;51.442;7.370;2022-07-10T08:07:44;5.87;;;1.80;;
71238;SDS011;61342;51.442;7.370;2022-07-10T08:08:46;7.43;;;1.70;;
71238;SDS011;61342;51.442;7.370;2022-07-10T08:09:50;6.83;;;1.90;;
71238;SDS011;61342;51.442;7.370;2022-07-10T08:10:51;10.23;;;1.60;;
71238;SDS011;61342;51.442;7.370;2022-07-10T08:11:52;6.33;;;1.87;;
71238;SDS011;61342;51.442;7.370;2022-07-10T08:12:52;7.30;;;1.80;;
71238;SDS011;61342;51.442;7.370;2022-07-10T08:13:53;7.70;;;2.33;;
71238;SDS011;61342;51.442;7.370;2022-07-10T08:14:53;10.10;;;1.70;;
71238;SDS011;61342;51.442;7.370;2022-07-10T08:15:53;5.10;;;1.70;;
71238;SDS011;61342;51.442;7.370;2022-07-10T08:16:54;7.17;;;1.70;;
71238;SDS011;61342;51.442;7.370;2022-07-10T08:17:55;10.77;;;2.10;;
71238;SDS011;61342;51.442;7.370;2022-07-10T08:18:56;7.17;;;1.53;;
71238;SDS011;61342;51.442;7.370;2022-07-10T08:19:57;6.77;;;1.67;;
71238;SDS011;61342;51.442;7.370;2022-07-10T08:20:57;8.43;;;1.70;;
71238;SDS011;61342;51.442;7.370;2022-07-10T08:21:58;10.50;;;2.33;;
71238;SDS011;61342;51.442;7.370;2022-07-10T08:22:58;8.20;;;1.83;;
71238;SDS011;61342;51.442;7.370;2022-07-10T08:23:59;7.17;;;1.67;;
71238;SDS011;61342;51.442;7.370;2022-07-10T08:25:00;4.23;;;1.70;;
71238;SDS011;61342;51.442;7.370;2022-07-10T08:26:03;4.80;;;1.63;;
71238;SDS011;61342;51.442;7.370;2022-07-10T08:27:07;6.87;;;1.77;;
71238;SDS011;61342;51.442;7.370;2022-07-10T08:28:08;8.23;;;2.20;;
71238;SDS011;61342;51.442;7.370;2022-07-10T08:29:12;6.20;;;2.07;;
71238;SDS011;61342;51.442;7.370;2022-07-10T08:30:15;6.67;;;1.80;;
71238;SDS011;61342;51.442;7.370;2022-07-10T08:31:19;10.73;;;1.93;;
71238;SDS011;61342;51.442;7.370;2022-07-10T08:32:22;7.03;;;1.80;;
71238;SDS011;61342;51.442;7.370;2022-07-10T08:33:23;4.73;;;1.53;;
71238;SDS011;61342;51.442;7.370;2022-07-10T08:34:24;10.40;;;1.93;;
71238;SDS011;61342;51.442;7.370;2022-07-10T08:35:27;9.27;;;1.73;;
71238;SDS011;61342;51.442;7.370;2022-07-10T08:36:27;7.47;;;1.73;;
71238;SDS011;61342;51.442;7.370;2022-07-10T08:37:44;8.47;;;1.77;;
71238;SDS011;61342;51.442;7.370;2022-07-10T08:39:04;9.97;;;1.80;;
71238;SDS011;61342;51.442;7.370;2022-07-10T08:40:34;6.43;;;1.77;;
71238;SDS011;61342;51.442;7.370;2022-07-10T08:41:45;7.67;;;1.93;;
71238;SDS011;61342;51.442;7.370;2022-07-10T08:42:53;5.77;;;2.27;;
71238;SDS011;61342;51.442;7.370;2022-07-10T08:44:02;8.57;;;2.47;;
71238;SDS011;61342;51.442;7.370;2022-07-10T08:53:08;3.83;;;1.80;;
71238;SDS011;61342;51.442;7.370;2022-07-10T08:54:10;7.83;;;1.90;;
71238;SDS011;61342;51.442;7.370;2022-07-10T09:05:30;6.00;;;1.80;;
71238;SDS011;61342;51.442;7.370;2022-07-10T09:14:11;7.67;;;1.90;;
71238;SDS011;61342;51.442;7.370;2022-07-10T09:19:13;8.63;;;2.00;;
71238;SDS011;61342;51.442;7.370;2022-07-10T09:25:22;4.57;;;2.37;;
71238;SDS011;61342;51.442;7.370;2022-07-10T09:26:34;6.03;;;2.47;;
71238;SDS011;61342;51.442;7.370;2022-07-10T09:28:08;9.07;;;3.37;;
71238;SDS011;61342;51.442;7.370;2022-07-10T09:29:09;8.83;;;3.20;;
71238;SDS011;61342;51.442;7.370;2022-07-10T09:30:14;4.90;;;2.57;;
71238;SDS011;61342;51.442;7.370;2022-07-10T09:31:51;10.50;;;3.10;;
71238;SDS011;61342;51.442;7.370;2022-07-10T09:33:25;5.70;;;3.10;;
71238;SDS011;61342;51.442;7.370;2022-07-10T09:36:35;6.90;;;3.70;;
71238;SDS011;61342;51.442;7.370;2022-07-10T09:37:59;8.17;;;3.60;;
71238;SDS011;61342;51.442;7.370;2022-07-10T09:39:32;5.93;;;3.00;;
71238;SDS011;61342;51.442;7.370;2022-07-10T09:44:06;4.47;;;3.90;;
71238;SDS011;61342;51.442;7.370;2022-07-10T09:45:19;10.60;;;4.07;;
71238;SDS011;61342;51.442;7.370;2022-07-10T09:46:24;8.40;;;3.57;;
71238;SDS011;61342;51.442;7.370;2022-07-10T09:48:09;13.17;;;3.73;;
71238;SDS011;61342;51.442;7.370;2022-07-10T09:49:37;9.73;;;4.23;;
71238;SDS011;61342;51.442;7.370;2022-07-10T09:52:28;7.40;;;3.90;;
71238;SDS011;61342;51.442;7.370;2022-07-10T09:54:46;8.10;;;3.40;;
71238;SDS011;61342;51.442;7.370;2022-07-10T09:56:18;5.23;;;3.47;;
71238;SDS011;61342;51.442;7.370;2022-07-10T10:01:05;4.60;;;2.97;;
71238;SDS011;61342;51.442;7.370;2022-07-10T10:02:11;6.67;;;3.60;;
71238;SDS011;61342;51.442;7.370;2022-07-10T10:03:27;6.07;;;3.33;;
71238;SDS011;61342;51.442;7.370;2022-07-10T10:04:30;5.57;;;3.00;;
71238;SDS011;61342;51.442;7.370;2022-07-10T10:05:54;5.83;;;3.00;;
71238;SDS011;61342;51.442;7.370;2022-07-10T10:07:21;6.07;;;2.93;;
71238;SDS011;61342;51.442;7.370;2022-07-10T10:08:51;6.53;;;2.83;;
71238;SDS011;61342;51.442;7.370;2022-07-10T10:10:23;5.40;;;2.60;;
71238;SDS011;61342;51.442;7.370;2022-07-10T10:11:44;4.77;;;2.70;;
71238;SDS011;61342;51.442;7.370;2022-07-10T10:12:54;5.80;;;2.90;;
71238;SDS011;61342;51.442;7.370;2022-07-10T10:14:12;3.00;;;2.70;;
71238;SDS011;61342;51.442;7.370;2022-07-10T10:15:37;5.37;;;2.67;;
71238;SDS011;61342;51.442;7.370;2022-07-10T10:16:47;5.47;;;2.40;;
71238;SDS011;61342;51.442;7.370;2022-07-10T10:17:48;5.90;;;2.37;;
71238;SDS011;61342;51.442;7.370;2022-07-10T10:19:05;4.30;;;2.30;;
71238;SDS011;61342;51.442;7.370;2022-07-10T10:37:59;6.33;;;2.53;;
71238;SDS011;61342;51.442;7.370;2022-07-10T10:47:56;7.13;;;2.63;;
71238;SDS011;61342;51.442;7.370;2022-07-10T10:49:49;4.20;;;2.40;;
71238;SDS011;61342;51.442;7.370;2022-07-10T11:16:45;8.97;;;5.33;;
71238;SDS011;61342;51.442;7.370;2022-07-10T11:18:13;8.90;;;5.13;;
71238;SDS011;61342;51.442;7.370;2022-07-10T11:21:39;6.20;;;5.60;;
71238;SDS011;61342;51.442;7.370;2022-07-10T11:31:27;10.67;;;6.90;;
71238;SDS011;61342;51.442;7.370;2022-07-10T11:33:13;9.60;;;7.17;;
71238;SDS011;61342;51.442;7.370;2022-07-10T11:36:39;7.90;;;6.90;;
71238;SDS011;61342;51.442;7.370;2022-07-10T11:42:50;10.40;;;6.77;;
71238;SDS011;61342;51.442;7.370;2022-07-10T11:43:55;8.23;;;6.67;;
71238;SDS011;61342;51.442;7.370;2022-07-10T11:44:59;10.63;;;6.50;;
71238;SDS011;61342;51.442;7.370;2022-07-10T11:48:03;10.77;;;6.83;;
71238;SDS011;61342;51.442;7.370;2022-07-10T11:49:57;6.70;;;5.70;;
71238;SDS011;61342;51.442;7.370;2022-07-10T11:51:36;8.93;;;6.13;;
71238;SDS011;61342;51.442;7.370;2022-07-10T11:53:12;6.13;;;4.97;;
71238;SDS011;61342;51.442;7.370;2022-07-10T11:54:13;6.70;;;5.73;;
71238;SDS011;61342;51.442;7.370;2022-07-10T12:12:42;10.47;;;9.37;;
71238;SDS011;61342;51.442;7.370;2022-07-10T12:21:09;11.60;;;10.40;;
71238;SDS011;61342;51.442;7.370;2022-07-10T12:31:31;12.83;;;11.40;;
71238;SDS011;61342;51.442;7.370;2022-07-10T12:34:47;10.17;;;8.50;;
71238;SDS011;61342;51.442;7.370;2022-07-10T12:36:41;10.67;;;9.33;;
71238;SDS011;61342;51.442;7.370;2022-07-10T12:38:20;8.77;;;7.87;;
71238;SDS011;61342;51.442;7.370;2022-07-10T12:40:29;8.47;;;7.63;;
71238;SDS011;61342;51.442;7.370;2022-07-10T12:46:07;6.40;;;5.80;;
71238;SDS011;61342;51.442;7.370;2022-07-10T12:57:14;4.57;;;4.00;;
71238;SDS011;61342;51.442;7.370;2022-07-10T13:35:43;2.23;;;1.73;;
71238;SDS011;61342;51.442;7.370;2022-07-10T13:40:36;3.10;;;2.23;;
71238;SDS011;61342;51.442;7.370;2022-07-10T13:41:37;5.13;;;2.77;;
71238;SDS011;61342;51.442;7.370;2022-07-10T13:42:38;2.53;;;2.13;;
71238;SDS011;61342;51.442;7.370;2022-07-10T13:43:41;3.53;;;1.93;;
71238;SDS011;61342;51.442;7.370;2022-07-10T13:44:42;2.37;;;2.00;;
71238;SDS011;61342;51.442;7.370;2022-07-10T13:46:03;2.47;;;2.00;;
71238;SDS011;61342;51.442;7.370;2022-07-10T13:48:00;2.60;;;1.77;;
71238;SDS011;61342;51.442;7.370;2022-07-10T13:49:00;2.13;;;1.93;;
71238;SDS011;61342;51.442;7.370;2022-07-10T13:50:07;2.37;;;1.70;;
71238;SDS011;61342;51.442;7.370;2022-07-10T13:56:30;2.13;;;1.40;;
71238;SDS011;61342;51.442;7.370;2022-07-10T13:57:56;1.67;;;1.50;;
71238;SDS011;61342;51.442;7.370;2022-07-10T13:58:57;2.87;;;1.83;;
71238;SDS011;61342;51.442;7.370;2022-07-10T14:00:08;1.40;;;1.30;;
71238;SDS011;61342;51.442;7.370;2022-07-10T14:02:54;2.47;;;1.50;;
71238;SDS011;61342;51.442;7.370;2022-07-10T14:06:46;3.07;;;1.43;;
71238;SDS011;61342;51.442;7.370;2022-07-10T14:07:50;3.97;;;1.53;;
71238;SDS011;61342;51.442;7.370;2022-07-10T14:08:56;2.63;;;1.43;;
71238;SDS011;61342;51.442;7.370;2022-07-10T14:09:59;2.77;;;1.63;;
71238;SDS011;61342;51.442;7.370;2022-07-10T14:11:22;3.40;;;1.70;;
71238;SDS011;61342;51.442;7.370;2022-07-10T14:12:37;2.77;;;1.67;;
71238;SDS011;61342;51.442;7.370;2022-07-10T14:14:19;2.30;;;1.67;;
71238;SDS011;61342;51.442;7.370;2022-07-10T14:15:22;2.03;;;1.50;;
71238;SDS011;61342;51.442;7.370;2022-07-10T14:16:23;2.57;;;1.80;;
71238;SDS011;61342;51.442;7.370;2022-07-10T14:17:31;3.00;;;1.37;;
71238;SDS011;61342;51.442;7.370;2022-07-10T14:18:32;4.30;;;1.73;;
71238;SDS011;61342;51.442;7.370;2022-07-10T14:19:37;2.93;;;1.60;;
71238;SDS011;61342;51.442;7.370;2022-07-10T14:22:42;3.37;;;1.70;;
71238;SDS011;61342;51.442;7.370;2022-07-10T14:24:12;1.87;;;1.53;;
71238;SDS011;61342;51.442;7.370;2022-07-10T14:26:00;2.10;;;1.53;;